sensor_id;sensor_type;location;lat;lon;timestamp;P1;durP1;ratioP1;P2;durP2;ratioP2
20170;SDS011;10245;51.344;6.620;2023-02-07T00:01:36;45.47;;;22.70;;
20170;SDS011;10245;51.344;6.620;2023-02-07T00:04:00;44.07;;;22.70;;
20170;SDS011;10245;51.344;6.620;2023-02-07T00:06:26;46.30;;;21.80;;
20170;SDS011;10245;51.344;6.620;2023-02-07T00:08:54;45.57;;;22.87;;
20170;SDS011;10245;51.344;6.620;2023-02-07T00:11:19;44.67;;;23.13;;
20170;SDS011;10245;51.344;6.620;2023-02-07T00:13:44;46.50;;;22.07;;
20170;SDS011;10245;51.344;6.620;2023-02-07T00:16:09;46.23;;;22.83;;
20170;SDS011;10245;51.344;6.620;2023-02-07T00:18:33;46.77;;;21.87;;
20170;SDS011;10245;51.344;6.620;2023-02-07T00:20:57;41.40;;;21.23;;
20170;SDS011;10245;51.344;6.620;2023-02-07T00:23:22;43.03;;;20.90;;
20170;SDS011;10245;51.344;6.620;2023-02-07T00:25:46;44.20;;;21.93;;
20170;SDS011;10245;51.344;6.620;2023-02-07T00:28:09;47.47;;;24.63;;
20170;SDS011;10245;51.344;6.620;2023-02-07T00:30:33;53.13;;;25.50;;
20170;SDS011;10245;51.344;6.620;2023-02-07T00:32:57;47.90;;;23.40;;
20170;SDS011;10245;51.344;6.620;2023-02-07T00:35:20;46.13;;;22.63;;
20170;SDS011;10245;51.344;6.620;2023-02-07T00:37:44;45.53;;;22.10;;
20170;SDS011;10245;51.344;6.620;2023-02-07T00:40:09;43.37;;;22.17;;
20170;SDS011;10245;51.344;6.620;2023-02-07T00:42:32;43.73;;;23.13;;
20170;SDS011;10245;51.344;6.620;2023-02-07T00:44:56;50.50;;;23.63;;
20170;SDS011;10245;51.344;6.620;2023-02-07T00:47:19;43.37;;;22.67;;
20170;SDS011;10245;51.344;6.620;2023-02-07T00:49:42;44.10;;;23.00;;
20170;SDS011;10245;51.344;6.620;2023-02-07T00:52:06;49.70;;;22.93;;
20170;SDS011;10245;51.344;6.620;2023-02-07T00:54:31;46.43;;;22.97;;
20170;SDS011;10245;51.344;6.620;2023-02-07T00:56:56;46.63;;;23.27;;
20170;SDS011;10245;51.344;6.620;2023-02-07T00:59:20;64.93;;;27.23;;
20170;SDS011;10245;51.344;6.620;2023-02-07T01:01:44;60.63;;;26.47;;
20170;SDS011;10245;51.344;6.620;2023-02-07T01:04:08;47.43;;;23.47;;
20170;SDS011;10245;51.344;6.620;2023-02-07T01:06:31;46.43;;;23.53;;
20170;SDS011;10245;51.344;6.620;2023-02-07T01:08:57;47.67;;;22.67;;
20170;SDS011;10245;51.344;6.620;2023-02-07T01:11:21;57.10;;;25.87;;
20170;SDS011;10245;51.344;6.620;2023-02-07T01:13:46;45.27;;;21.80;;
20170;SDS011;10245;51.344;6.620;2023-02-07T01:16:15;45.60;;;22.07;;
20170;SDS011;10245;51.344;6.620;2023-02-07T01:18:41;47.87;;;22.37;;
20170;SDS011;10245;51.344;6.620;2023-02-07T01:21:12;44.90;;;21.47;;
20170;SDS011;10245;51.344;6.620;2023-02-07T01:23:36;45.70;;;22.50;;
20170;SDS011;10245;51.344;6.620;2023-02-07T01:26:01;46.07;;;21.40;;
20170;SDS011;10245;51.344;6.620;2023-02-07T01:28:26;43.03;;;21.77;;
20170;SDS011;10245;51.344;6.620;2023-02-07T01:30:51;47.63;;;21.50;;
20170;SDS011;10245;51.344;6.620;2023-02-07T01:33:15;49.20;;;22.07;;
20170;SDS011;10245;51.344;6.620;2023-02-07T01:35:38;44.73;;;22.73;;
20170;SDS011;10245;51.344;6.620;2023-02-07T01:38:02;47.40;;;22.10;;
20170;SDS011;10245;51.344;6.620;2023-02-07T01:40:25;52.20;;;22.93;;
20170;SDS011;10245;51.344;6.620;2023-02-07T01:42:48;48.60;;;21.60;;
20170;SDS011;10245;51.344;6.620;2023-02-07T01:45:16;40.13;;;20.30;;
20170;SDS011;10245;51.344;6.620;2023-02-07T01:47:49;43.53;;;20.83;;
20170;SDS011;10245;51.344;6.620;2023-02-07T01:50:13;44.83;;;21.00;;
20170;SDS011;10245;51.344;6.620;2023-02-07T01:52:38;42.00;;;19.07;;
20170;SDS011;10245;51.344;6.620;2023-02-07T01:55:05;34.70;;;18.57;;
20170;SDS011;10245;51.344;6.620;2023-02-07T01:57:31;42.83;;;18.43;;
20170;SDS011;10245;51.344;6.620;2023-02-07T01:59:55;39.53;;;18.93;;
20170;SDS011;10245;51.344;6.620;2023-02-07T02:02:20;33.27;;;17.00;;
20170;SDS011;10245;51.344;6.620;2023-02-07T02:04:46;29.93;;;17.10;;
20170;SDS011;10245;51.344;6.620;2023-02-07T02:07:12;30.40;;;16.87;;
20170;SDS011;10245;51.344;6.620;2023-02-07T02:09:37;40.40;;;16.17;;
20170;SDS011;10245;51.344;6.620;2023-02-07T02:12:10;29.37;;;15.20;;
20170;SDS011;10245;51.344;6.620;2023-02-07T02:14:51;31.17;;;16.80;;
20170;SDS011;10245;51.344;6.620;2023-02-07T02:17:41;33.60;;;16.17;;
20170;SDS011;10245;51.344;6.620;2023-02-07T02:20:24;36.83;;;16.57;;
20170;SDS011;10245;51.344;6.620;2023-02-07T02:23:27;33.63;;;16.73;;
20170;SDS011;10245;51.344;6.620;2023-02-07T02:26:18;52.13;;;21.90;;
20170;SDS011;10245;51.344;6.620;2023-02-07T02:29:14;45.60;;;18.27;;
20170;SDS011;10245;51.344;6.620;2023-02-07T02:35:18;35.37;;;16.93;;
20170;SDS011;10245;51.344;6.620;2023-02-07T02:37:51;34.33;;;14.60;;
20170;SDS011;10245;51.344;6.620;2023-02-07T02:40:25;33.10;;;16.10;;
20170;SDS011;10245;51.344;6.620;2023-02-07T02:42:57;32.23;;;15.93;;
20170;SDS011;10245;51.344;6.620;2023-02-07T02:45:28;32.73;;;14.40;;
20170;SDS011;10245;51.344;6.620;2023-02-07T02:47:59;26.63;;;14.07;;
20170;SDS011;10245;51.344;6.620;2023-02-07T02:50:24;25.70;;;12.90;;
20170;SDS011;10245;51.344;6.620;2023-02-07T02:52:50;27.37;;;13.90;;
20170;SDS011;10245;51.344;6.620;2023-02-07T02:55:17;31.90;;;14.70;;
20170;SDS011;10245;51.344;6.620;2023-02-07T02:57:57;28.00;;;13.60;;
20170;SDS011;10245;51.344;6.620;2023-02-07T03:00:41;24.60;;;12.50;;
20170;SDS011;10245;51.344;6.620;2023-02-07T03:03:21;31.50;;;14.53;;
20170;SDS011;10245;51.344;6.620;2023-02-07T03:06:00;25.30;;;12.80;;
20170;SDS011;10245;51.344;6.620;2023-02-07T03:08:34;29.53;;;13.50;;
20170;SDS011;10245;51.344;6.620;2023-02-07T03:11:06;26.97;;;13.67;;
20170;SDS011;10245;51.344;6.620;2023-02-07T03:13:35;25.77;;;13.07;;
20170;SDS011;10245;51.344;6.620;2023-02-07T03:16:10;31.00;;;13.97;;
20170;SDS011;10245;51.344;6.620;2023-02-07T03:18:44;26.93;;;13.47;;
20170;SDS011;10245;51.344;6.620;2023-02-07T03:21:16;30.63;;;14.03;;
20170;SDS011;10245;51.344;6.620;2023-02-07T03:23:45;32.00;;;13.53;;
20170;SDS011;10245;51.344;6.620;2023-02-07T03:26:10;25.73;;;14.37;;
20170;SDS011;10245;51.344;6.620;2023-02-07T03:28:34;27.77;;;12.23;;
20170;SDS011;10245;51.344;6.620;2023-02-07T03:30:59;26.27;;;13.07;;
20170;SDS011;10245;51.344;6.620;2023-02-07T03:33:26;29.03;;;13.33;;
20170;SDS011;10245;51.344;6.620;2023-02-07T03:35:54;27.23;;;12.33;;
20170;SDS011;10245;51.344;6.620;2023-02-07T03:38:22;22.33;;;11.13;;
20170;SDS011;10245;51.344;6.620;2023-02-07T03:40:47;23.30;;;12.90;;
20170;SDS011;10245;51.344;6.620;2023-02-07T03:43:15;25.30;;;12.37;;
20170;SDS011;10245;51.344;6.620;2023-02-07T03:45:44;23.70;;;11.67;;
20170;SDS011;10245;51.344;6.620;2023-02-07T03:48:07;23.97;;;12.80;;
20170;SDS011;10245;51.344;6.620;2023-02-07T03:50:31;24.03;;;11.17;;
20170;SDS011;10245;51.344;6.620;2023-02-07T03:52:56;22.97;;;13.13;;
20170;SDS011;10245;51.344;6.620;2023-02-07T03:55:19;25.13;;;11.30;;
20170;SDS011;10245;51.344;6.620;2023-02-07T03:57:42;21.47;;;11.77;;
20170;SDS011;10245;51.344;6.620;2023-02-07T04:00:07;22.57;;;11.70;;
20170;SDS011;10245;51.344;6.620;2023-02-07T04:02:36;21.60;;;11.80;;
20170;SDS011;10245;51.344;6.620;2023-02-07T04:04:59;24.10;;;12.03;;
20170;SDS011;10245;51.344;6.620;2023-02-07T04:07:22;23.00;;;11.80;;
20170;SDS011;10245;51.344;6.620;2023-02-07T04:09:47;24.73;;;11.87;;
20170;SDS011;10245;51.344;6.620;2023-02-07T04:12:11;25.40;;;11.37;;
20170;SDS011;10245;51.344;6.620;2023-02-07T04:14:34;22.30;;;11.20;;
20170;SDS011;10245;51.344;6.620;2023-02-07T04:16:58;27.63;;;13.03;;
20170;SDS011;10245;51.344;6.620;2023-02-07T04:19:21;24.57;;;11.53;;
20170;SDS011;10245;51.344;6.620;2023-02-07T04:21:45;27.33;;;11.93;;
20170;SDS011;10245;51.344;6.620;2023-02-07T04:24:09;27.20;;;13.07;;
20170;SDS011;10245;51.344;6.620;2023-02-07T04:26:34;25.87;;;12.60;;
20170;SDS011;10245;51.344;6.620;2023-02-07T04:28:57;20.03;;;11.33;;
20170;SDS011;10245;51.344;6.620;2023-02-07T04:31:21;21.93;;;12.37;;
20170;SDS011;10245;51.344;6.620;2023-02-07T04:33:44;21.10;;;11.73;;
20170;SDS011;10245;51.344;6.620;2023-02-07T04:36:08;23.20;;;12.40;;
20170;SDS011;10245;51.344;6.620;2023-02-07T04:38:31;23.00;;;11.60;;
20170;SDS011;10245;51.344;6.620;2023-02-07T04:40:57;22.70;;;12.17;;
20170;SDS011;10245;51.344;6.620;2023-02-07T04:43:22;20.37;;;11.63;;
20170;SDS011;10245;51.344;6.620;2023-02-07T04:45:46;23.80;;;11.23;;
20170;SDS011;10245;51.344;6.620;2023-02-07T04:48:11;20.07;;;11.70;;
20170;SDS011;10245;51.344;6.620;2023-02-07T04:50:34;25.93;;;12.27;;
20170;SDS011;10245;51.344;6.620;2023-02-07T04:52:58;20.33;;;11.77;;
20170;SDS011;10245;51.344;6.620;2023-02-07T04:55:21;23.20;;;11.97;;
20170;SDS011;10245;51.344;6.620;2023-02-07T04:57:44;18.07;;;10.83;;
20170;SDS011;10245;51.344;6.620;2023-02-07T05:00:10;19.77;;;11.27;;
20170;SDS011;10245;51.344;6.620;2023-02-07T05:02:35;20.00;;;10.77;;
20170;SDS011;10245;51.344;6.620;2023-02-07T05:04:58;24.00;;;12.20;;
20170;SDS011;10245;51.344;6.620;2023-02-07T05:07:21;21.27;;;12.37;;
20170;SDS011;10245;51.344;6.620;2023-02-07T05:09:45;24.40;;;12.43;;
20170;SDS011;10245;51.344;6.620;2023-02-07T05:12:09;26.87;;;12.97;;
20170;SDS011;10245;51.344;6.620;2023-02-07T05:14:33;29.03;;;13.97;;
20170;SDS011;10245;51.344;6.620;2023-02-07T05:16:57;23.17;;;13.67;;
20170;SDS011;10245;51.344;6.620;2023-02-07T05:19:21;27.93;;;14.37;;
20170;SDS011;10245;51.344;6.620;2023-02-07T05:21:44;23.03;;;12.30;;
20170;SDS011;10245;51.344;6.620;2023-02-07T05:24:08;26.43;;;13.83;;
20170;SDS011;10245;51.344;6.620;2023-02-07T05:26:31;24.20;;;13.47;;
20170;SDS011;10245;51.344;6.620;2023-02-07T05:28:54;25.70;;;12.73;;
20170;SDS011;10245;51.344;6.620;2023-02-07T05:31:18;29.57;;;15.60;;
20170;SDS011;10245;51.344;6.620;2023-02-07T05:33:42;32.17;;;15.50;;
20170;SDS011;10245;51.344;6.620;2023-02-07T05:36:05;29.20;;;15.13;;
20170;SDS011;10245;51.344;6.620;2023-02-07T05:38:30;31.37;;;15.90;;
20170;SDS011;10245;51.344;6.620;2023-02-07T05:40:54;31.30;;;15.07;;
20170;SDS011;10245;51.344;6.620;2023-02-07T05:43:17;24.80;;;13.23;;
20170;SDS011;10245;51.344;6.620;2023-02-07T05:45:41;20.73;;;11.53;;
20170;SDS011;10245;51.344;6.620;2023-02-07T05:48:06;25.73;;;13.73;;
20170;SDS011;10245;51.344;6.620;2023-02-07T05:50:31;27.43;;;13.50;;
20170;SDS011;10245;51.344;6.620;2023-02-07T05:53:02;19.87;;;11.87;;
20170;SDS011;10245;51.344;6.620;2023-02-07T05:55:26;25.07;;;13.10;;
20170;SDS011;10245;51.344;6.620;2023-02-07T05:57:50;22.83;;;13.07;;
20170;SDS011;10245;51.344;6.620;2023-02-07T06:00:14;23.40;;;12.47;;
20170;SDS011;10245;51.344;6.620;2023-02-07T06:02:40;25.47;;;12.37;;
20170;SDS011;10245;51.344;6.620;2023-02-07T06:05:04;22.90;;;13.20;;
20170;SDS011;10245;51.344;6.620;2023-02-07T06:07:30;20.73;;;12.13;;
20170;SDS011;10245;51.344;6.620;2023-02-07T06:09:53;23.73;;;13.27;;
20170;SDS011;10245;51.344;6.620;2023-02-07T06:12:16;27.73;;;13.27;;
20170;SDS011;10245;51.344;6.620;2023-02-07T06:14:40;24.03;;;12.97;;
20170;SDS011;10245;51.344;6.620;2023-02-07T06:17:03;25.30;;;12.93;;
20170;SDS011;10245;51.344;6.620;2023-02-07T06:19:26;22.67;;;12.27;;
20170;SDS011;10245;51.344;6.620;2023-02-07T06:21:50;24.60;;;13.33;;
20170;SDS011;10245;51.344;6.620;2023-02-07T06:24:14;19.83;;;12.00;;
20170;SDS011;10245;51.344;6.620;2023-02-07T06:26:38;23.70;;;12.67;;
20170;SDS011;10245;51.344;6.620;2023-02-07T06:29:01;22.50;;;12.50;;
20170;SDS011;10245;51.344;6.620;2023-02-07T06:31:25;23.83;;;12.83;;
20170;SDS011;10245;51.344;6.620;2023-02-07T06:33:48;22.90;;;12.83;;
20170;SDS011;10245;51.344;6.620;2023-02-07T06:36:11;23.97;;;14.07;;
20170;SDS011;10245;51.344;6.620;2023-02-07T06:38:35;27.97;;;14.43;;
20170;SDS011;10245;51.344;6.620;2023-02-07T06:40:59;23.63;;;13.33;;
20170;SDS011;10245;51.344;6.620;2023-02-07T06:43:22;26.60;;;13.27;;
20170;SDS011;10245;51.344;6.620;2023-02-07T06:45:47;26.87;;;14.13;;
20170;SDS011;10245;51.344;6.620;2023-02-07T06:48:10;29.67;;;14.50;;
20170;SDS011;10245;51.344;6.620;2023-02-07T06:50:33;30.00;;;15.07;;
20170;SDS011;10245;51.344;6.620;2023-02-07T06:52:57;25.33;;;14.70;;
20170;SDS011;10245;51.344;6.620;2023-02-07T06:55:22;29.27;;;15.67;;
20170;SDS011;10245;51.344;6.620;2023-02-07T06:57:47;26.47;;;14.20;;
20170;SDS011;10245;51.344;6.620;2023-02-07T07:00:10;27.47;;;14.93;;
20170;SDS011;10245;51.344;6.620;2023-02-07T07:02:35;26.10;;;14.70;;
20170;SDS011;10245;51.344;6.620;2023-02-07T07:04:58;27.70;;;14.93;;
20170;SDS011;10245;51.344;6.620;2023-02-07T07:07:22;26.17;;;15.40;;
20170;SDS011;10245;51.344;6.620;2023-02-07T07:09:45;33.83;;;15.40;;
20170;SDS011;10245;51.344;6.620;2023-02-07T07:12:08;33.13;;;16.80;;
20170;SDS011;10245;51.344;6.620;2023-02-07T07:14:34;28.77;;;15.77;;
20170;SDS011;10245;51.344;6.620;2023-02-07T07:16:57;30.13;;;16.33;;
20170;SDS011;10245;51.344;6.620;2023-02-07T07:19:21;33.67;;;16.93;;
20170;SDS011;10245;51.344;6.620;2023-02-07T07:21:44;34.70;;;16.93;;
20170;SDS011;10245;51.344;6.620;2023-02-07T07:24:07;35.23;;;17.30;;
20170;SDS011;10245;51.344;6.620;2023-02-07T07:26:31;30.07;;;16.83;;
20170;SDS011;10245;51.344;6.620;2023-02-07T07:29:09;27.43;;;15.63;;
20170;SDS011;10245;51.344;6.620;2023-02-07T07:31:33;28.03;;;15.10;;
20170;SDS011;10245;51.344;6.620;2023-02-07T07:33:57;27.23;;;14.67;;
20170;SDS011;10245;51.344;6.620;2023-02-07T07:36:20;26.23;;;14.97;;
20170;SDS011;10245;51.344;6.620;2023-02-07T07:38:44;29.33;;;15.40;;
20170;SDS011;10245;51.344;6.620;2023-02-07T07:41:08;26.73;;;14.17;;
20170;SDS011;10245;51.344;6.620;2023-02-07T07:43:33;25.27;;;14.70;;
20170;SDS011;10245;51.344;6.620;2023-02-07T07:45:57;30.10;;;15.43;;
20170;SDS011;10245;51.344;6.620;2023-02-07T07:48:23;30.00;;;15.37;;
20170;SDS011;10245;51.344;6.620;2023-02-07T07:50:47;32.77;;;15.47;;
20170;SDS011;10245;51.344;6.620;2023-02-07T07:53:11;29.60;;;14.43;;
20170;SDS011;10245;51.344;6.620;2023-02-07T07:55:35;27.67;;;14.63;;
20170;SDS011;10245;51.344;6.620;2023-02-07T07:57:58;28.20;;;14.40;;
20170;SDS011;10245;51.344;6.620;2023-02-07T08:00:22;23.47;;;13.90;;
20170;SDS011;10245;51.344;6.620;2023-02-07T08:02:46;22.40;;;13.50;;
20170;SDS011;10245;51.344;6.620;2023-02-07T08:05:10;23.23;;;13.93;;
20170;SDS011;10245;51.344;6.620;2023-02-07T08:07:34;28.70;;;14.40;;
20170;SDS011;10245;51.344;6.620;2023-02-07T08:09:57;29.57;;;14.87;;
20170;SDS011;10245;51.344;6.620;2023-02-07T08:12:21;27.87;;;14.40;;
20170;SDS011;10245;51.344;6.620;2023-02-07T08:14:44;27.63;;;15.13;;
20170;SDS011;10245;51.344;6.620;2023-02-07T08:17:08;28.43;;;15.10;;
20170;SDS011;10245;51.344;6.620;2023-02-07T08:19:31;25.80;;;14.73;;
20170;SDS011;10245;51.344;6.620;2023-02-07T08:21:56;26.20;;;15.60;;
20170;SDS011;10245;51.344;6.620;2023-02-07T08:24:19;26.10;;;15.73;;
20170;SDS011;10245;51.344;6.620;2023-02-07T08:26:43;25.97;;;15.20;;
20170;SDS011;10245;51.344;6.620;2023-02-07T08:29:06;30.07;;;17.07;;
20170;SDS011;10245;51.344;6.620;2023-02-07T08:31:30;25.57;;;15.60;;
20170;SDS011;10245;51.344;6.620;2023-02-07T08:33:53;27.47;;;15.17;;
20170;SDS011;10245;51.344;6.620;2023-02-07T08:36:16;25.93;;;14.83;;
20170;SDS011;10245;51.344;6.620;2023-02-07T08:38:41;28.23;;;15.10;;
20170;SDS011;10245;51.344;6.620;2023-02-07T08:41:05;30.57;;;15.17;;
20170;SDS011;10245;51.344;6.620;2023-02-07T08:43:28;30.27;;;16.27;;
20170;SDS011;10245;51.344;6.620;2023-02-07T08:45:51;35.80;;;17.30;;
20170;SDS011;10245;51.344;6.620;2023-02-07T08:48:15;27.87;;;14.83;;
20170;SDS011;10245;51.344;6.620;2023-02-07T08:50:38;32.60;;;15.93;;
20170;SDS011;10245;51.344;6.620;2023-02-07T08:53:02;25.13;;;15.00;;
20170;SDS011;10245;51.344;6.620;2023-02-07T08:55:27;26.77;;;15.13;;
20170;SDS011;10245;51.344;6.620;2023-02-07T08:57:50;25.07;;;14.90;;
20170;SDS011;10245;51.344;6.620;2023-02-07T09:00:14;25.03;;;13.10;;
20170;SDS011;10245;51.344;6.620;2023-02-07T09:02:39;21.57;;;12.60;;
20170;SDS011;10245;51.344;6.620;2023-02-07T09:05:03;23.97;;;12.90;;
20170;SDS011;10245;51.344;6.620;2023-02-07T09:07:28;21.87;;;11.73;;
20170;SDS011;10245;51.344;6.620;2023-02-07T09:09:52;18.33;;;10.97;;
20170;SDS011;10245;51.344;6.620;2023-02-07T09:12:16;19.30;;;11.30;;
20170;SDS011;10245;51.344;6.620;2023-02-07T09:14:40;24.87;;;10.87;;
20170;SDS011;10245;51.344;6.620;2023-02-07T09:17:03;18.53;;;10.40;;
20170;SDS011;10245;51.344;6.620;2023-02-07T09:19:28;20.37;;;12.10;;
20170;SDS011;10245;51.344;6.620;2023-02-07T09:21:51;22.87;;;12.50;;
20170;SDS011;10245;51.344;6.620;2023-02-07T09:24:14;22.63;;;12.80;;
20170;SDS011;10245;51.344;6.620;2023-02-07T09:26:38;24.37;;;12.90;;
20170;SDS011;10245;51.344;6.620;2023-02-07T09:29:03;23.20;;;12.53;;
20170;SDS011;10245;51.344;6.620;2023-02-07T09:31:27;23.53;;;13.53;;
20170;SDS011;10245;51.344;6.620;2023-02-07T09:33:50;20.97;;;12.17;;
20170;SDS011;10245;51.344;6.620;2023-02-07T09:36:18;24.47;;;12.60;;
20170;SDS011;10245;51.344;6.620;2023-02-07T09:38:43;22.00;;;11.97;;
20170;SDS011;10245;51.344;6.620;2023-02-07T09:41:10;20.97;;;11.67;;
20170;SDS011;10245;51.344;6.620;2023-02-07T09:43:46;24.33;;;12.73;;
20170;SDS011;10245;51.344;6.620;2023-02-07T09:46:29;25.07;;;13.00;;
20170;SDS011;10245;51.344;6.620;2023-02-07T09:48:58;18.47;;;11.50;;
20170;SDS011;10245;51.344;6.620;2023-02-07T09:51:27;19.30;;;11.47;;
20170;SDS011;10245;51.344;6.620;2023-02-07T09:53:52;17.47;;;10.50;;
20170;SDS011;10245;51.344;6.620;2023-02-07T09:56:20;16.07;;;10.57;;
20170;SDS011;10245;51.344;6.620;2023-02-07T09:58:49;17.33;;;9.80;;
20170;SDS011;10245;51.344;6.620;2023-02-07T10:01:20;16.10;;;9.63;;
20170;SDS011;10245;51.344;6.620;2023-02-07T10:03:50;14.83;;;9.17;;
20170;SDS011;10245;51.344;6.620;2023-02-07T10:06:34;19.10;;;9.70;;
20170;SDS011;10245;51.344;6.620;2023-02-07T10:09:00;11.13;;;8.10;;
20170;SDS011;10245;51.344;6.620;2023-02-07T10:11:26;12.77;;;8.10;;
20170;SDS011;10245;51.344;6.620;2023-02-07T10:14:10;17.47;;;8.53;;
20170;SDS011;10245;51.344;6.620;2023-02-07T10:16:53;10.47;;;7.43;;
20170;SDS011;10245;51.344;6.620;2023-02-07T10:19:45;11.90;;;7.87;;
20170;SDS011;10245;51.344;6.620;2023-02-07T10:22:18;11.77;;;6.93;;
20170;SDS011;10245;51.344;6.620;2023-02-07T10:25:05;11.40;;;7.17;;
20170;SDS011;10245;51.344;6.620;2023-02-07T10:27:41;11.73;;;7.57;;
20170;SDS011;10245;51.344;6.620;2023-02-07T10:30:18;11.17;;;7.80;;
20170;SDS011;10245;51.344;6.620;2023-02-07T10:32:48;10.53;;;6.90;;
20170;SDS011;10245;51.344;6.620;2023-02-07T10:35:16;11.20;;;7.80;;
20170;SDS011;10245;51.344;6.620;2023-02-07T10:37:42;9.67;;;6.80;;
20170;SDS011;10245;51.344;6.620;2023-02-07T10:40:10;7.87;;;6.33;;
20170;SDS011;10245;51.344;6.620;2023-02-07T10:42:38;9.13;;;6.20;;
20170;SDS011;10245;51.344;6.620;2023-02-07T10:45:02;14.90;;;6.43;;
20170;SDS011;10245;51.344;6.620;2023-02-07T10:47:28;7.37;;;6.23;;
20170;SDS011;10245;51.344;6.620;2023-02-07T10:49:54;9.47;;;5.90;;
20170;SDS011;10245;51.344;6.620;2023-02-07T10:52:27;7.53;;;6.23;;
20170;SDS011;10245;51.344;6.620;2023-02-07T10:54:56;8.53;;;6.20;;
20170;SDS011;10245;51.344;6.620;2023-02-07T10:57:22;9.43;;;6.33;;
20170;SDS011;10245;51.344;6.620;2023-02-07T10:59:46;7.90;;;6.10;;
20170;SDS011;10245;51.344;6.620;2023-02-07T11:05:02;8.97;;;7.23;;
20170;SDS011;10245;51.344;6.620;2023-02-07T11:07:31;9.17;;;6.80;;
20170;SDS011;10245;51.344;6.620;2023-02-07T11:10:13;8.37;;;6.20;;
20170;SDS011;10245;51.344;6.620;2023-02-07T11:12:43;9.17;;;6.57;;
20170;SDS011;10245;51.344;6.620;2023-02-07T11:15:14;8.50;;;6.47;;
20170;SDS011;10245;51.344;6.620;2023-02-07T11:17:44;9.03;;;6.53;;
20170;SDS011;10245;51.344;6.620;2023-02-07T11:20:13;8.10;;;5.83;;
20170;SDS011;10245;51.344;6.620;2023-02-07T11:22:42;10.60;;;6.43;;
20170;SDS011;10245;51.344;6.620;2023-02-07T11:25:06;9.05;;;6.40;;
20170;SDS011;10245;51.344;6.620;2023-02-07T11:27:33;8.10;;;6.40;;
20170;SDS011;10245;51.344;6.620;2023-02-07T11:30:04;10.87;;;6.30;;
20170;SDS011;10245;51.344;6.620;2023-02-07T11:32:31;8.00;;;5.78;;
20170;SDS011;10245;51.344;6.620;2023-02-07T11:34:56;10.05;;;6.63;;
20170;SDS011;10245;51.344;6.620;2023-02-07T11:37:28;8.67;;;6.87;;
20170;SDS011;10245;51.344;6.620;2023-02-07T11:39:54;8.85;;;6.38;;
20170;SDS011;10245;51.344;6.620;2023-02-07T11:42:30;8.65;;;6.43;;
20170;SDS011;10245;51.344;6.620;2023-02-07T11:44:54;8.00;;;6.50;;
20170;SDS011;10245;51.344;6.620;2023-02-07T11:47:18;9.70;;;6.63;;
20170;SDS011;10245;51.344;6.620;2023-02-07T11:49:46;8.45;;;6.07;;
20170;SDS011;10245;51.344;6.620;2023-02-07T11:52:12;7.73;;;5.70;;
20170;SDS011;10245;51.344;6.620;2023-02-07T11:54:38;7.20;;;6.20;;
20170;SDS011;10245;51.344;6.620;2023-02-07T11:57:03;8.50;;;6.15;;
20170;SDS011;10245;51.344;6.620;2023-02-07T11:59:30;10.10;;;6.80;;
20170;SDS011;10245;51.344;6.620;2023-02-07T12:01:55;8.10;;;6.32;;
20170;SDS011;10245;51.344;6.620;2023-02-07T12:04:23;9.80;;;6.47;;
20170;SDS011;10245;51.344;6.620;2023-02-07T12:06:51;7.05;;;5.95;;
20170;SDS011;10245;51.344;6.620;2023-02-07T12:09:22;11.05;;;6.85;;
20170;SDS011;10245;51.344;6.620;2023-02-07T12:11:55;6.93;;;5.38;;
20170;SDS011;10245;51.344;6.620;2023-02-07T12:14:25;9.88;;;6.22;;
20170;SDS011;10245;51.344;6.620;2023-02-07T12:16:55;8.70;;;5.93;;
20170;SDS011;10245;51.344;6.620;2023-02-07T12:19:22;8.32;;;6.07;;
20170;SDS011;10245;51.344;6.620;2023-02-07T12:21:55;7.20;;;5.30;;
20170;SDS011;10245;51.344;6.620;2023-02-07T12:24:23;7.35;;;4.65;;
20170;SDS011;10245;51.344;6.620;2023-02-07T12:26:54;7.38;;;5.47;;
20170;SDS011;10245;51.344;6.620;2023-02-07T12:29:28;7.03;;;5.40;;
20170;SDS011;10245;51.344;6.620;2023-02-07T12:32:03;8.13;;;5.63;;
20170;SDS011;10245;51.344;6.620;2023-02-07T12:34:33;8.07;;;5.45;;
20170;SDS011;10245;51.344;6.620;2023-02-07T12:37:04;7.90;;;5.78;;
20170;SDS011;10245;51.344;6.620;2023-02-07T12:39:38;7.55;;;5.57;;
20170;SDS011;10245;51.344;6.620;2023-02-07T12:42:11;8.32;;;6.25;;
20170;SDS011;10245;51.344;6.620;2023-02-07T12:44:48;6.82;;;5.05;;
20170;SDS011;10245;51.344;6.620;2023-02-07T12:47:18;6.28;;;5.05;;
20170;SDS011;10245;51.344;6.620;2023-02-07T12:49:54;7.22;;;5.15;;
20170;SDS011;10245;51.344;6.620;2023-02-07T12:52:37;8.18;;;5.25;;
20170;SDS011;10245;51.344;6.620;2023-02-07T12:55:18;8.32;;;5.28;;
20170;SDS011;10245;51.344;6.620;2023-02-07T12:57:58;7.30;;;5.55;;
20170;SDS011;10245;51.344;6.620;2023-02-07T13:00:37;6.72;;;5.28;;
20170;SDS011;10245;51.344;6.620;2023-02-07T13:03:18;7.72;;;5.95;;
20170;SDS011;10245;51.344;6.620;2023-02-07T13:06:00;7.28;;;5.38;;
20170;SDS011;10245;51.344;6.620;2023-02-07T13:08:36;9.00;;;5.47;;
20170;SDS011;10245;51.344;6.620;2023-02-07T13:11:14;6.85;;;5.30;;
20170;SDS011;10245;51.344;6.620;2023-02-07T13:13:52;6.78;;;5.10;;
20170;SDS011;10245;51.344;6.620;2023-02-07T13:16:28;9.05;;;5.55;;
20170;SDS011;10245;51.344;6.620;2023-02-07T13:19:03;6.68;;;5.22;;
20170;SDS011;10245;51.344;6.620;2023-02-07T13:21:34;8.60;;;5.80;;
20170;SDS011;10245;51.344;6.620;2023-02-07T13:24:04;6.28;;;5.20;;
20170;SDS011;10245;51.344;6.620;2023-02-07T13:26:29;6.68;;;5.05;;
20170;SDS011;10245;51.344;6.620;2023-02-07T13:28:59;6.18;;;4.68;;
20170;SDS011;10245;51.344;6.620;2023-02-07T13:31:29;8.00;;;4.97;;
20170;SDS011;10245;51.344;6.620;2023-02-07T13:33:59;6.82;;;5.47;;
20170;SDS011;10245;51.344;6.620;2023-02-07T13:36:25;10.85;;;6.45;;
20170;SDS011;10245;51.344;6.620;2023-02-07T13:39:01;7.68;;;5.10;;
20170;SDS011;10245;51.344;6.620;2023-02-07T13:41:38;8.43;;;5.82;;
20170;SDS011;10245;51.344;6.620;2023-02-07T13:44:15;9.00;;;6.50;;
20170;SDS011;10245;51.344;6.620;2023-02-07T13:46:49;6.75;;;5.30;;
20170;SDS011;10245;51.344;6.620;2023-02-07T13:49:39;6.72;;;4.88;;
20170;SDS011;10245;51.344;6.620;2023-02-07T13:52:08;8.98;;;5.18;;
20170;SDS011;10245;51.344;6.620;2023-02-07T13:54:40;6.80;;;4.63;;
20170;SDS011;10245;51.344;6.620;2023-02-07T13:57:19;5.75;;;4.70;;
20170;SDS011;10245;51.344;6.620;2023-02-07T14:00:24;5.97;;;4.85;;
20170;SDS011;10245;51.344;6.620;2023-02-07T14:02:51;5.88;;;4.40;;
20170;SDS011;10245;51.344;6.620;2023-02-07T14:05:23;7.72;;;5.63;;
20170;SDS011;10245;51.344;6.620;2023-02-07T14:07:53;6.97;;;4.70;;
20170;SDS011;10245;51.344;6.620;2023-02-07T14:10:34;6.68;;;4.50;;
20170;SDS011;10245;51.344;6.620;2023-02-07T14:13:14;6.50;;;4.80;;
20170;SDS011;10245;51.344;6.620;2023-02-07T14:15:59;9.10;;;4.57;;
20170;SDS011;10245;51.344;6.620;2023-02-07T14:18:33;5.10;;;4.20;;
20170;SDS011;10245;51.344;6.620;2023-02-07T14:21:21;7.78;;;4.35;;
20170;SDS011;10245;51.344;6.620;2023-02-07T14:23:58;6.18;;;4.20;;
20170;SDS011;10245;51.344;6.620;2023-02-07T14:26:48;8.52;;;4.20;;
20170;SDS011;10245;51.344;6.620;2023-02-07T14:32:43;5.90;;;4.20;;
20170;SDS011;10245;51.344;6.620;2023-02-07T14:35:31;5.78;;;4.78;;
20170;SDS011;10245;51.344;6.620;2023-02-07T14:40:54;6.22;;;4.68;;
20170;SDS011;10245;51.344;6.620;2023-02-07T14:43:38;6.60;;;4.40;;
20170;SDS011;10245;51.344;6.620;2023-02-07T14:46:07;5.68;;;4.10;;